Time;durP1;ratioP1;P1;durP2;ratioP2;P2;SDS_P1;SDS_P2;PMS_P1;PMS_P2;Temp;Humidity;BMP_temperature;BMP_pressure;BME280_temperature;BME280_humidity;BME280_pressure;Samples;Min_cycle;Max_cycle;Signal;HPM_P1;HPM_P2
2023/07/15 00:02:20;;;;;;;24.03;22.73;;;;;;;;;;5156865;27;20437;-78
2023/07/15 00:04:47;;;;;;;25.23;23.60;;;;;;;;;;5154126;27;20895;-78
2023/07/15 00:07:14;;;;;;;22.87;21.57;;;;;;;;;;5150813;27;20443;-80
2023/07/15 00:09:42;;;;;;;23.83;22.33;;;;;;;;;;5139163;27;20864;-80
2023/07/15 00:12:10;;;;;;;28.77;26.53;;;;;;;;;;5139038;27;20503;-81
2023/07/15 00:14:38;;;;;;;23.50;21.80;;;;;;;;;;5138576;27;20508;-80
2023/07/15 00:17:05;;;;;;;24.03;22.63;;;;;;;;;;5138418;27;20461;-80
2023/07/15 00:19:33;;;;;;;27.27;25.30;;;;;;;;;;5138125;27;20466;-80
2023/07/15 00:22:00;;;;;;;24.03;22.40;;;;;;;;;;5138523;27;20443;-82
2023/07/15 00:24:27;;;;;;;24.00;22.60;;;;;;;;;;5139299;27;20418;-81
2023/07/15 00:26:58;;;;;;;23.13;21.73;;;;;;;;;;5137917;27;20434;-82
2023/07/15 00:29:25;;;;;;;23.40;21.90;;;;;;;;;;5138755;27;20992;-80
2023/07/15 00:31:53;;;;;;;22.90;21.50;;;;;;;;;;5139414;27;20759;-80
2023/07/15 00:34:20;;;;;;;24.10;22.47;;;;;;;;;;5138298;27;20425;-81
2023/07/15 00:36:47;;;;;;;23.40;21.70;;;;;;;;;;5138471;27;20505;-80
2023/07/15 00:39:15;;;;;;;23.43;21.93;;;;;;;;;;5138814;27;20429;-81
2023/07/15 00:41:43;;;;;;;23.50;21.80;;;;;;;;;;5138606;27;20447;-80
2023/07/15 00:44:14;;;;;;;22.73;21.30;;;;;;;;;;5139388;27;20484;-80
2023/07/15 00:46:59;;;;;;;22.27;20.97;;;;;;;;;;5138513;27;20481;-80
2023/07/15 00:49:31;;;;;;;22.97;21.57;;;;;;;;;;5138188;27;21020;-82
2023/07/15 00:52:01;;;;;;;24.10;22.40;;;;;;;;;;5138203;27;20454;-82
2023/07/15 00:54:28;;;;;;;23.33;22.00;;;;;;;;;;5138621;27;20491;-82
2023/07/15 00:56:56;;;;;;;23.37;21.70;;;;;;;;;;5137299;27;20443;-80
2023/07/15 00:59:23;;;;;;;23.93;22.30;;;;;;;;;;5138505;27;20451;-81
2023/07/15 01:01:53;;;;;;;23.70;22.20;;;;;;;;;;5138161;27;20413;-80
2023/07/15 01:04:20;;;;;;;23.67;22.03;;;;;;;;;;5138757;27;20496;-81
2023/07/15 01:06:49;;;;;;;22.97;21.60;;;;;;;;;;5138461;27;20470;-81
2023/07/15 01:09:16;;;;;;;22.40;21.10;;;;;;;;;;5139241;27;20418;-80
2023/07/15 01:11:43;;;;;;;22.80;21.50;;;;;;;;;;5138244;27;20429;-80
2023/07/15 01:14:12;;;;;;;22.70;21.30;;;;;;;;;;5138541;27;20439;-80
2023/07/15 01:16:39;;;;;;;22.67;21.37;;;;;;;;;;5137484;27;20518;-80
2023/07/15 01:19:06;;;;;;;22.30;21.00;;;;;;;;;;5138459;27;20445;-81
2023/07/15 01:21:34;;;;;;;22.93;21.50;;;;;;;;;;5137558;27;20447;-81
2023/07/15 01:24:03;;;;;;;22.83;21.53;;;;;;;;;;5137836;27;20475;-80
2023/07/15 01:26:30;;;;;;;22.33;21.03;;;;;;;;;;5137290;27;20482;-81
2023/07/15 01:28:57;;;;;;;23.80;21.97;;;;;;;;;;5138369;27;20475;-80
2023/07/15 01:31:25;;;;;;;22.87;21.43;;;;;;;;;;5137505;27;20433;-80
2023/07/15 01:33:52;;;;;;;23.07;21.67;;;;;;;;;;5138379;27;20889;-81
2023/07/15 01:36:20;;;;;;;22.93;21.63;;;;;;;;;;5135233;27;20659;-80
2023/07/15 01:38:47;;;;;;;22.70;21.30;;;;;;;;;;5137272;27;20823;-81
2023/07/15 01:41:15;;;;;;;22.40;21.00;;;;;;;;;;5137789;27;20472;-82
2023/07/15 01:43:42;;;;;;;23.60;22.00;;;;;;;;;;5137785;27;20453;-78
2023/07/15 01:46:10;;;;;;;23.43;21.70;;;;;;;;;;5137533;27;20426;-80
2023/07/15 01:48:37;;;;;;;23.20;21.70;;;;;;;;;;5138112;27;20434;-81
2023/07/15 01:51:04;;;;;;;23.10;21.23;;;;;;;;;;5137716;27;20442;-82
2023/07/15 01:53:31;;;;;;;23.27;21.77;;;;;;;;;;5137177;27;20414;-80
2023/07/15 01:55:58;;;;;;;23.03;21.57;;;;;;;;;;5136917;27;20406;-80
2023/07/15 01:58:27;;;;;;;22.90;21.37;;;;;;;;;;5137390;27;20855;-80
2023/07/15 02:00:54;;;;;;;22.87;21.47;;;;;;;;;;5137078;27;21023;-80
2023/07/15 02:03:21;;;;;;;23.30;21.90;;;;;;;;;;5136660;27;20468;-81
2023/07/15 02:05:48;;;;;;;22.80;21.30;;;;;;;;;;5136871;27;20508;-81
2023/07/15 02:08:15;;;;;;;23.17;21.77;;;;;;;;;;5137314;27;20450;-80
2023/07/15 02:10:42;;;;;;;22.73;21.30;;;;;;;;;;5137340;27;20498;-81
2023/07/15 02:13:11;;;;;;;23.97;22.57;;;;;;;;;;5137432;27;20435;-82
2023/07/15 02:15:39;;;;;;;22.60;21.20;;;;;;;;;;5136822;27;20478;-79
2023/07/15 02:18:06;;;;;;;23.33;21.93;;;;;;;;;;5137149;27;20432;-82
2023/07/15 02:20:33;;;;;;;23.57;21.97;;;;;;;;;;5137174;27;20803;-81
2023/07/15 02:23:00;;;;;;;23.80;22.20;;;;;;;;;;5136848;27;20450;-81
2023/07/15 02:25:27;;;;;;;23.47;22.07;;;;;;;;;;5135847;27;20437;-82
2023/07/15 02:27:55;;;;;;;24.07;22.37;;;;;;;;;;5135908;27;20940;-82
2023/07/15 02:30:22;;;;;;;23.40;22.00;;;;;;;;;;5136226;27;20442;-83
2023/07/15 02:32:50;;;;;;;23.90;22.30;;;;;;;;;;5136390;27;20426;-82
2023/07/15 02:35:17;;;;;;;23.80;22.30;;;;;;;;;;5137296;27;20439;-82
2023/07/15 02:37:44;;;;;;;24.00;22.60;;;;;;;;;;5136465;27;20962;-83
2023/07/15 02:40:13;;;;;;;23.90;22.40;;;;;;;;;;5136931;27;20509;-82
2023/07/15 02:42:40;;;;;;;23.17;21.87;;;;;;;;;;5136069;27;20455;-82
2023/07/15 02:45:08;;;;;;;22.40;21.10;;;;;;;;;;5137250;27;20434;-82
2023/07/15 02:47:36;;;;;;;22.63;21.23;;;;;;;;;;5136176;27;20466;-82
2023/07/15 02:50:06;;;;;;;23.37;21.47;;;;;;;;;;5136499;27;21217;-80
2023/07/15 02:52:33;;;;;;;23.77;22.27;;;;;;;;;;5136673;27;20426;-80
2023/07/15 02:55:01;;;;;;;22.77;21.30;;;;;;;;;;5136591;28;20451;-81
2023/07/15 02:57:28;;;;;;;24.83;23.07;;;;;;;;;;5135661;28;20417;-81
2023/07/15 02:59:55;;;;;;;24.00;22.40;;;;;;;;;;5136011;28;20870;-82
2023/07/15 03:02:23;;;;;;;22.67;21.30;;;;;;;;;;5135611;27;20506;-81
2023/07/15 03:04:50;;;;;;;24.00;21.43;;;;;;;;;;5136365;28;20448;-80
2023/07/15 03:07:18;;;;;;;22.47;21.00;;;;;;;;;;5136404;28;20458;-81
2023/07/15 03:09:46;;;;;;;23.40;21.90;;;;;;;;;;5136605;28;21012;-81
2023/07/15 03:12:14;;;;;;;22.77;21.37;;;;;;;;;;5136305;28;20447;-82
2023/07/15 03:14:41;;;;;;;23.07;21.77;;;;;;;;;;5135913;28;20435;-80
2023/07/15 03:17:09;;;;;;;23.30;21.37;;;;;;;;;;5136131;27;20453;-80
2023/07/15 03:19:37;;;;;;;23.23;21.90;;;;;;;;;;5136917;28;20474;-79
2023/07/15 03:22:05;;;;;;;23.57;21.87;;;;;;;;;;5135705;28;20959;-79
2023/07/15 03:24:36;;;;;;;23.50;22.07;;;;;;;;;;5134926;28;20537;-80
2023/07/15 03:27:04;;;;;;;23.90;22.40;;;;;;;;;;5134119;28;20459;-80
2023/07/15 03:29:32;;;;;;;23.50;21.97;;;;;;;;;;5134660;28;20466;-79
2023/07/15 03:31:59;;;;;;;23.40;22.00;;;;;;;;;;5134287;28;20474;-79
2023/07/15 03:34:26;;;;;;;22.83;21.43;;;;;;;;;;5134170;28;20791;-79
2023/07/15 03:36:53;;;;;;;23.87;22.47;;;;;;;;;;5133685;28;20425;-82
2023/07/15 03:39:21;;;;;;;23.47;22.07;;;;;;;;;;5134366;27;20417;-81
2023/07/15 03:41:49;;;;;;;23.40;22.00;;;;;;;;;;5134474;28;20456;-80
2023/07/15 03:44:16;;;;;;;23.90;22.40;;;;;;;;;;5136434;27;20453;-80
2023/07/15 03:46:43;;;;;;;22.60;21.20;;;;;;;;;;5137401;27;20451;-77
2023/07/15 03:49:10;;;;;;;24.07;22.57;;;;;;;;;;5135993;27;20442;-77
2023/07/15 03:51:37;;;;;;;24.27;22.83;;;;;;;;;;5135903;27;20499;-78
2023/07/15 03:54:05;;;;;;;23.40;22.10;;;;;;;;;;5135451;27;20420;-77
2023/07/15 03:56:33;;;;;;;23.87;22.40;;;;;;;;;;5135150;27;20454;-77
2023/07/15 03:59:01;;;;;;;23.80;22.37;;;;;;;;;;5135639;27;20516;-78
2023/07/15 04:01:28;;;;;;;25.00;23.00;;;;;;;;;;5135372;27;20482;-77
2023/07/15 04:03:55;;;;;;;23.80;22.17;;;;;;;;;;5135397;27;20454;-77
2023/07/15 04:06:22;;;;;;;24.03;22.53;;;;;;;;;;5134913;27;20495;-77
2023/07/15 04:08:50;;;;;;;24.50;22.60;;;;;;;;;;5135059;27;20463;-78
2023/07/15 04:11:17;;;;;;;24.70;23.20;;;;;;;;;;5135562;27;20480;-77
2023/07/15 04:13:44;;;;;;;24.43;22.87;;;;;;;;;;5135314;27;20890;-78
2023/07/15 04:16:12;;;;;;;25.60;24.03;;;;;;;;;;5135036;27;20443;-77
2023/07/15 04:18:39;;;;;;;25.10;23.60;;;;;;;;;;5135425;27;20495;-78
2023/07/15 04:21:07;;;;;;;24.27;22.87;;;;;;;;;;5135275;27;20449;-78
2023/07/15 04:23:34;;;;;;;24.37;22.97;;;;;;;;;;5135019;27;20475;-77
2023/07/15 04:26:02;;;;;;;24.90;23.47;;;;;;;;;;5134409;27;20458;-77
2023/07/15 04:28:29;;;;;;;24.43;23.00;;;;;;;;;;5134465;27;20459;-78
2023/07/15 04:30:56;;;;;;;24.83;23.13;;;;;;;;;;5134985;27;20467;-76
2023/07/15 04:33:24;;;;;;;23.53;22.17;;;;;;;;;;5135169;27;20426;-77
2023/07/15 04:35:51;;;;;;;24.30;22.73;;;;;;;;;;5134710;27;20449;-76
2023/07/15 04:38:19;;;;;;;23.90;22.60;;;;;;;;;;5134890;27;20879;-77
2023/07/15 04:40:46;;;;;;;23.20;21.90;;;;;;;;;;5134694;27;20485;-78
2023/07/15 04:43:21;;;;;;;23.60;22.10;;;;;;;;;;5135302;27;20425;-78
2023/07/15 04:45:48;;;;;;;24.30;22.80;;;;;;;;;;5134345;27;20454;-78
2023/07/15 04:48:15;;;;;;;24.27;22.47;;;;;;;;;;5135156;27;20499;-76
2023/07/15 04:50:43;;;;;;;24.20;22.70;;;;;;;;;;5135011;27;20459;-77
2023/07/15 04:53:11;;;;;;;23.87;22.30;;;;;;;;;;5135045;27;20439;-79
2023/07/15 04:55:39;;;;;;;24.10;22.50;;;;;;;;;;5133276;27;21407;-77
2023/07/15 04:58:06;;;;;;;23.30;22.00;;;;;;;;;;5134643;27;20482;-77
2023/07/15 05:00:33;;;;;;;24.03;22.53;;;;;;;;;;5134465;27;21116;-77
2023/07/15 05:03:01;;;;;;;23.63;22.23;;;;;;;;;;5134871;27;20422;-78
2023/07/15 05:05:28;;;;;;;23.53;22.13;;;;;;;;;;5133763;27;20464;-78
2023/07/15 05:08:03;;;;;;;23.67;22.37;;;;;;;;;;5134436;27;20516;-79
2023/07/15 05:10:30;;;;;;;23.23;21.90;;;;;;;;;;5135556;27;20484;-78
2023/07/15 05:12:57;;;;;;;24.53;22.97;;;;;;;;;;5135411;27;20450;-78
2023/07/15 05:15:24;;;;;;;23.63;22.13;;;;;;;;;;5135020;27;20463;-78
2023/07/15 05:17:51;;;;;;;23.83;22.43;;;;;;;;;;5146216;27;20482;-76
2023/07/15 05:20:19;;;;;;;23.47;22.07;;;;;;;;;;5155018;27;20461;-76
2023/07/15 05:22:46;;;;;;;23.97;22.60;;;;;;;;;;5155371;27;20446;-79
2023/07/15 05:25:16;;;;;;;22.60;21.20;;;;;;;;;;5145317;27;21021;-79
2023/07/15 05:27:44;;;;;;;23.03;21.63;;;;;;;;;;5135248;27;20489;-79
2023/07/15 05:30:12;;;;;;;24.33;22.83;;;;;;;;;;5135780;27;20544;-79
2023/07/15 05:32:41;;;;;;;23.67;22.20;;;;;;;;;;5136025;27;20418;-79
2023/07/15 05:35:09;;;;;;;24.43;23.03;;;;;;;;;;5135688;27;20447;-79
2023/07/15 05:37:36;;;;;;;24.30;22.90;;;;;;;;;;5134716;27;20927;-79
2023/07/15 05:40:09;;;;;;;23.80;22.40;;;;;;;;;;5135542;27;20466;-77
2023/07/15 05:42:37;;;;;;;24.43;22.97;;;;;;;;;;5135230;27;20441;-78
2023/07/15 05:45:05;;;;;;;24.33;22.60;;;;;;;;;;5135570;27;20457;-79
2023/07/15 05:47:34;;;;;;;23.90;22.50;;;;;;;;;;5134837;27;20455;-78
2023/07/15 05:50:01;;;;;;;24.90;23.40;;;;;;;;;;5135018;27;20529;-78
2023/07/15 05:52:28;;;;;;;23.23;21.93;;;;;;;;;;5134872;27;20490;-78
2023/07/15 05:54:55;;;;;;;23.43;22.03;;;;;;;;;;5134701;27;20425;-78
2023/07/15 05:57:22;;;;;;;22.83;21.43;;;;;;;;;;5134013;27;20509;-80
2023/07/15 05:59:51;;;;;;;24.80;23.30;;;;;;;;;;5134407;27;20520;-78
2023/07/15 06:02:18;;;;;;;23.80;22.30;;;;;;;;;;5134859;27;20438;-78
2023/07/15 06:04:45;;;;;;;23.80;22.40;;;;;;;;;;5134585;27;20457;-79
2023/07/15 06:07:12;;;;;;;23.50;21.87;;;;;;;;;;5133986;27;20448;-78
2023/07/15 06:09:39;;;;;;;23.83;22.43;;;;;;;;;;5134222;27;20470;-79
2023/07/15 06:12:06;;;;;;;22.83;21.43;;;;;;;;;;5134661;27;20824;-78
2023/07/15 06:14:34;;;;;;;22.97;21.67;;;;;;;;;;5133221;27;20874;-77
2023/07/15 06:17:02;;;;;;;24.40;23.00;;;;;;;;;;5132981;27;20421;-77
2023/07/15 06:19:29;;;;;;;23.60;22.20;;;;;;;;;;5133454;27;20445;-79
2023/07/15 06:21:56;;;;;;;23.03;21.73;;;;;;;;;;5133475;27;20528;-78
2023/07/15 06:24:24;;;;;;;23.47;21.93;;;;;;;;;;5133392;27;20573;-77
2023/07/15 06:26:51;;;;;;;24.10;22.60;;;;;;;;;;5132388;27;20429;-78
2023/07/15 06:29:18;;;;;;;23.33;22.00;;;;;;;;;;5132956;27;20455;-78
2023/07/15 06:31:45;;;;;;;23.20;21.80;;;;;;;;;;5133181;27;20452;-78
2023/07/15 06:34:13;;;;;;;23.80;22.27;;;;;;;;;;5133261;27;20450;-77
2023/07/15 06:36:40;;;;;;;23.87;22.47;;;;;;;;;;5132361;27;20857;-78
2023/07/15 06:39:07;;;;;;;22.93;21.53;;;;;;;;;;5132575;27;20421;-77
2023/07/15 06:41:34;;;;;;;23.10;21.70;;;;;;;;;;5132913;27;20433;-79
2023/07/15 06:44:01;;;;;;;23.20;21.70;;;;;;;;;;5132838;27;20502;-78
2023/07/15 06:46:28;;;;;;;22.70;21.40;;;;;;;;;;5132189;27;20453;-76
2023/07/15 06:48:55;;;;;;;23.60;22.10;;;;;;;;;;5132592;27;20423;-77
2023/07/15 06:51:24;;;;;;;24.10;22.50;;;;;;;;;;5132928;27;20537;-77
2023/07/15 06:53:51;;;;;;;23.97;22.43;;;;;;;;;;5132359;27;20433;-78
2023/07/15 06:56:18;;;;;;;23.67;22.17;;;;;;;;;;5132185;28;20426;-76
2023/07/15 06:58:45;;;;;;;23.40;22.00;;;;;;;;;;5132974;28;20418;-80
2023/07/15 07:01:12;;;;;;;23.07;21.50;;;;;;;;;;5136806;28;20429;-85
2023/07/15 07:03:39;;;;;;;23.10;21.70;;;;;;;;;;5135219;28;20938;-77
2023/07/15 07:06:06;;;;;;;23.80;22.20;;;;;;;;;;5133584;28;20458;-78
2023/07/15 07:08:35;;;;;;;23.00;21.30;;;;;;;;;;5132619;27;20879;-78
2023/07/15 07:11:02;;;;;;;24.47;22.90;;;;;;;;;;5132394;28;20445;-78
2023/07/15 07:13:29;;;;;;;23.80;22.40;;;;;;;;;;5132769;28;20426;-78
2023/07/15 07:15:58;;;;;;;24.30;22.80;;;;;;;;;;5132302;28;20414;-79
2023/07/15 07:18:25;;;;;;;24.80;23.27;;;;;;;;;;5132203;27;20891;-79
2023/07/15 07:20:56;;;;;;;24.17;22.70;;;;;;;;;;5136014;27;20464;-81
2023/07/15 07:23:23;;;;;;;24.10;22.70;;;;;;;;;;5137296;27;20417;-78
2023/07/15 07:25:52;;;;;;;24.30;22.80;;;;;;;;;;5137091;27;20531;-79
2023/07/15 07:28:23;;;;;;;24.30;22.90;;;;;;;;;;5138464;27;20447;-78
2023/07/15 07:30:50;;;;;;;24.30;22.80;;;;;;;;;;5137761;27;20483;-79
2023/07/15 07:33:18;;;;;;;24.20;22.80;;;;;;;;;;5138183;27;20426;-79
2023/07/15 07:35:47;;;;;;;24.77;23.27;;;;;;;;;;5137616;27;20461;-80
2023/07/15 07:38:14;;;;;;;23.60;21.80;;;;;;;;;;5137716;27;20445;-79
2023/07/15 07:40:41;;;;;;;24.03;22.33;;;;;;;;;;5136951;27;20457;-79
2023/07/15 07:43:09;;;;;;;24.40;22.90;;;;;;;;;;5137799;27;20465;-78
2023/07/15 07:45:36;;;;;;;24.13;22.53;;;;;;;;;;5136810;27;20872;-79
2023/07/15 07:48:03;;;;;;;24.40;22.97;;;;;;;;;;5137432;27;20455;-79
2023/07/15 07:50:31;;;;;;;24.10;22.67;;;;;;;;;;5136464;27;20526;-79
2023/07/15 07:52:58;;;;;;;24.47;22.90;;;;;;;;;;5137073;27;20504;-78
2023/07/15 07:55:25;;;;;;;23.70;22.30;;;;;;;;;;5137113;27;20422;-80
2023/07/15 07:57:52;;;;;;;22.43;20.97;;;;;;;;;;5137030;27;20499;-79
2023/07/15 08:00:20;;;;;;;23.70;22.30;;;;;;;;;;5136433;27;20470;-79
2023/07/15 08:02:47;;;;;;;24.57;22.93;;;;;;;;;;5137432;27;20427;-79
2023/07/15 08:05:17;;;;;;;24.17;22.70;;;;;;;;;;5137818;27;20889;-88
2023/07/15 08:07:44;;;;;;;23.73;22.37;;;;;;;;;;5140095;27;20463;-87
2023/07/15 08:10:11;;;;;;;24.20;22.70;;;;;;;;;;5138790;27;20430;-84
2023/07/15 08:12:38;;;;;;;23.50;22.03;;;;;;;;;;5140377;27;20441;-85
2023/07/15 08:15:05;;;;;;;23.23;21.83;;;;;;;;;;5136852;27;20429;-79
2023/07/15 08:17:34;;;;;;;23.90;22.50;;;;;;;;;;5137561;27;20426;-79
2023/07/15 08:20:01;;;;;;;22.33;20.83;;;;;;;;;;5137971;27;20438;-79
2023/07/15 08:22:28;;;;;;;22.47;20.97;;;;;;;;;;5143194;27;20447;-80
2023/07/15 08:24:56;;;;;;;22.80;21.40;;;;;;;;;;5137979;27;20461;-78
2023/07/15 08:27:23;;;;;;;22.20;20.80;;;;;;;;;;5134993;27;20809;-81
2023/07/15 08:29:50;;;;;;;22.27;20.97;;;;;;;;;;5133785;27;20442;-79
2023/07/15 08:32:17;;;;;;;23.30;22.00;;;;;;;;;;5134153;27;20428;-79
2023/07/15 08:34:59;;;;;;;23.73;22.10;;;;;;;;;;5134961;27;20453;-81
2023/07/15 08:37:26;;;;;;;24.20;22.57;;;;;;;;;;5136181;27;20480;-79
2023/07/15 08:39:53;;;;;;;23.33;21.60;;;;;;;;;;5149107;27;20437;-79
2023/07/15 08:42:20;;;;;;;23.47;22.17;;;;;;;;;;5144767;27;20435;-80
2023/07/15 08:44:47;;;;;;;23.53;22.23;;;;;;;;;;5144767;27;20530;-79
2023/07/15 08:47:19;;;;;;;22.70;21.40;;;;;;;;;;5140320;27;20446;-79
2023/07/15 08:49:46;;;;;;;22.90;21.50;;;;;;;;;;5140380;27;20853;-78
2023/07/15 08:52:15;;;;;;;22.60;21.20;;;;;;;;;;5137843;27;20983;-80
2023/07/15 08:54:42;;;;;;;23.87;22.17;;;;;;;;;;5143896;27;20445;-81
2023/07/15 08:57:10;;;;;;;23.00;21.50;;;;;;;;;;5141697;27;20878;-81
2023/07/15 08:59:37;;;;;;;22.57;21.23;;;;;;;;;;5136867;27;20494;-80
2023/07/15 09:02:04;;;;;;;23.30;21.87;;;;;;;;;;5136948;27;20429;-79
2023/07/15 09:04:31;;;;;;;22.80;21.40;;;;;;;;;;5136565;27;20458;-80
2023/07/15 09:06:58;;;;;;;22.93;21.53;;;;;;;;;;5135164;27;20445;-81
2023/07/15 09:09:33;;;;;;;22.23;20.83;;;;;;;;;;5136215;27;20536;-81
2023/07/15 09:12:01;;;;;;;23.37;21.97;;;;;;;;;;5136268;27;20461;-81
2023/07/15 09:14:28;;;;;;;24.30;22.50;;;;;;;;;;5136059;27;20477;-81
2023/07/15 09:16:56;;;;;;;24.60;23.00;;;;;;;;;;5135295;27;20429;-80
2023/07/15 09:19:26;;;;;;;23.43;21.93;;;;;;;;;;5136355;27;20426;-81
2023/07/15 09:21:53;;;;;;;23.47;21.97;;;;;;;;;;5136265;27;20833;-79
2023/07/15 09:24:21;;;;;;;23.83;22.20;;;;;;;;;;5136566;27;20451;-79
2023/07/15 09:26:50;;;;;;;23.43;22.13;;;;;;;;;;5134744;27;20489;-78
2023/07/15 09:29:20;;;;;;;23.97;22.50;;;;;;;;;;5135551;27;20937;-79
2023/07/15 09:31:47;;;;;;;23.90;22.37;;;;;;;;;;5135786;27;20422;-78
2023/07/15 09:34:14;;;;;;;24.10;22.70;;;;;;;;;;5135543;27;20470;-79
2023/07/15 09:36:41;;;;;;;24.53;23.03;;;;;;;;;;5135032;27;20504;-79
2023/07/15 09:39:12;;;;;;;24.40;23.07;;;;;;;;;;5134662;27;20470;-77
2023/07/15 09:41:39;;;;;;;23.40;22.00;;;;;;;;;;5135004;27;20507;-78
2023/07/15 09:44:08;;;;;;;24.03;22.60;;;;;;;;;;5134563;27;20425;-84
2023/07/15 09:46:35;;;;;;;23.60;22.10;;;;;;;;;;5135854;27;20465;-89
2023/07/15 09:49:10;;;;;;;23.43;21.93;;;;;;;;;;5137221;27;20475;-89
2023/07/15 09:51:37;;;;;;;23.00;21.60;;;;;;;;;;5138166;27;20443;-89
2023/07/15 09:54:05;;;;;;;23.47;21.87;;;;;;;;;;5138395;27;20451;-88
2023/07/15 09:56:36;;;;;;;22.20;20.80;;;;;;;;;;5137654;27;20806;-88
2023/07/15 09:59:09;;;;;;;24.60;23.00;;;;;;;;;;5138188;27;20475;-89
2023/07/15 10:01:39;;;;;;;24.40;23.00;;;;;;;;;;5138120;27;20459;-87
2023/07/15 10:04:11;;;;;;;24.17;22.57;;;;;;;;;;5137540;27;20504;-88
2023/07/15 10:06:39;;;;;;;23.80;22.40;;;;;;;;;;5136287;27;20477;-80
2023/07/15 10:09:06;;;;;;;24.47;23.07;;;;;;;;;;5134833;27;20445;-80
2023/07/15 10:11:34;;;;;;;24.40;23.00;;;;;;;;;;5134718;27;20455;-80
2023/07/15 10:14:01;;;;;;;24.00;22.50;;;;;;;;;;5135281;27;20843;-79
2023/07/15 10:16:29;;;;;;;24.80;23.30;;;;;;;;;;5134355;27;20903;-80
2023/07/15 10:18:56;;;;;;;25.17;23.63;;;;;;;;;;5134916;27;20422;-81
2023/07/15 10:21:23;;;;;;;24.40;23.00;;;;;;;;;;5134468;27;20459;-80
2023/07/15 10:23:50;;;;;;;24.20;22.70;;;;;;;;;;5133218;27;20437;-78
2023/07/15 10:26:22;;;;;;;23.90;22.50;;;;;;;;;;5133959;27;20556;-80
2023/07/15 10:28:53;;;;;;;23.53;22.17;;;;;;;;;;5135044;27;20514;-81
2023/07/15 10:31:25;;;;;;;24.20;22.60;;;;;;;;;;5134407;27;20484;-79
2023/07/15 10:33:57;;;;;;;22.87;21.57;;;;;;;;;;5133991;27;20784;-78
2023/07/15 10:36:38;;;;;;;23.80;22.20;;;;;;;;;;5135072;27;20413;-87
2023/07/15 10:39:13;;;;;;;23.60;22.20;;;;;;;;;;5139345;27;20424;-88
2023/07/15 10:41:41;;;;;;;22.87;21.33;;;;;;;;;;5143757;27;20401;-83
2023/07/15 10:44:21;;;;;;;22.87;21.37;;;;;;;;;;5159320;27;20440;-85
2023/07/15 10:46:48;;;;;;;21.87;20.47;;;;;;;;;;5158668;27;20445;-87
2023/07/15 10:49:18;;;;;;;22.97;21.07;;;;;;;;;;5158107;27;20423;-89
2023/07/15 10:51:45;;;;;;;22.87;21.40;;;;;;;;;;5160561;27;20446;-88
2023/07/15 10:54:12;;;;;;;22.60;21.20;;;;;;;;;;5141122;27;20452;-85
2023/07/15 10:56:39;;;;;;;22.90;21.20;;;;;;;;;;5137766;28;20410;-86
2023/07/15 10:59:12;;;;;;;22.30;21.00;;;;;;;;;;5138469;28;20422;-86
2023/07/15 11:01:39;;;;;;;22.70;21.33;;;;;;;;;;5128081;27;20472;-88
2023/07/15 11:04:06;;;;;;;22.07;20.70;;;;;;;;;;5134478;28;20459;-84
2023/07/15 11:06:35;;;;;;;23.57;22.10;;;;;;;;;;5136429;28;20840;-85
2023/07/15 11:09:14;;;;;;;22.30;20.90;;;;;;;;;;5136490;28;20431;-86
2023/07/15 11:11:41;;;;;;;22.50;21.20;;;;;;;;;;5128058;28;20499;-83
2023/07/15 11:14:19;;;;;;;22.53;21.23;;;;;;;;;;5124551;28;20430;-85
2023/07/15 11:16:46;;;;;;;22.30;21.00;;;;;;;;;;5114610;28;20448;-83
2023/07/15 11:19:14;;;;;;;23.07;21.67;;;;;;;;;;5115062;28;20445;-83
2023/07/15 11:21:43;;;;;;;22.63;21.23;;;;;;;;;;5114776;28;20538;-83
2023/07/15 11:24:12;;;;;;;21.70;20.50;;;;;;;;;;5114578;28;20486;-83
2023/07/15 11:26:39;;;;;;;23.30;21.80;;;;;;;;;;5114995;28;21040;-84
2023/07/15 11:29:14;;;;;;;22.80;21.50;;;;;;;;;;5115439;28;20501;-85
2023/07/15 11:31:41;;;;;;;21.67;20.37;;;;;;;;;;5114802;28;20936;-81
2023/07/15 11:34:09;;;;;;;22.33;21.03;;;;;;;;;;5125583;28;20486;-83
2023/07/15 11:36:37;;;;;;;21.77;20.57;;;;;;;;;;5119071;28;20903;-86
2023/07/15 11:39:05;;;;;;;21.97;20.67;;;;;;;;;;5114794;28;20509;-84
2023/07/15 11:41:33;;;;;;;23.20;21.70;;;;;;;;;;5114284;28;20414;-85
2023/07/15 11:44:00;;;;;;;23.10;21.57;;;;;;;;;;5125354;27;20481;-84
2023/07/15 11:46:27;;;;;;;22.60;21.30;;;;;;;;;;5133991;28;20514;-84
2023/07/15 11:48:58;;;;;;;22.10;20.83;;;;;;;;;;5135067;28;20482;-86
2023/07/15 11:51:25;;;;;;;21.47;20.37;;;;;;;;;;5135015;28;20915;-83
2023/07/15 11:53:53;;;;;;;22.73;21.43;;;;;;;;;;5134488;27;20466;-84
2023/07/15 11:56:35;;;;;;;21.30;20.20;;;;;;;;;;5133314;28;20477;-86
2023/07/15 11:59:02;;;;;;;23.13;21.60;;;;;;;;;;5134998;28;20439;-81
2023/07/15 12:01:30;;;;;;;21.80;20.50;;;;;;;;;;5132012;28;20447;-80
2023/07/15 12:03:57;;;;;;;21.80;20.30;;;;;;;;;;5132927;28;20409;-79
2023/07/15 12:06:25;;;;;;;21.40;20.30;;;;;;;;;;5134906;27;20867;-79
2023/07/15 12:09:02;;;;;;;21.57;20.43;;;;;;;;;;5136696;27;20426;-79
2023/07/15 12:11:29;;;;;;;21.47;20.30;;;;;;;;;;5136843;27;20486;-79
2023/07/15 12:13:57;;;;;;;22.30;21.00;;;;;;;;;;5137017;27;20426;-79
2023/07/15 12:16:25;;;;;;;20.43;19.33;;;;;;;;;;5135118;27;20446;-80
2023/07/15 12:18:52;;;;;;;19.47;18.47;;;;;;;;;;5136634;27;20417;-79
2023/07/15 12:21:19;;;;;;;20.87;19.77;;;;;;;;;;5136494;27;20505;-79
2023/07/15 12:23:46;;;;;;;20.50;19.40;;;;;;;;;;5136051;27;20761;-79
2023/07/15 12:26:13;;;;;;;21.27;20.00;;;;;;;;;;5134999;27;20978;-79
2023/07/15 12:28:40;;;;;;;20.47;19.47;;;;;;;;;;5136111;27;20443;-79
2023/07/15 12:31:09;;;;;;;20.03;19.00;;;;;;;;;;5135931;27;20441;-79
2023/07/15 12:33:36;;;;;;;20.73;19.63;;;;;;;;;;5135929;27;20932;-80
2023/07/15 12:36:03;;;;;;;20.17;19.07;;;;;;;;;;5134885;27;20525;-78
2023/07/15 12:38:30;;;;;;;21.87;20.23;;;;;;;;;;5135711;27;20535;-79
2023/07/15 12:40:57;;;;;;;20.70;19.60;;;;;;;;;;5135700;27;20496;-79
2023/07/15 12:43:25;;;;;;;20.70;19.60;;;;;;;;;;5136121;27;20425;-78
2023/07/15 12:45:52;;;;;;;21.23;20.00;;;;;;;;;;5134672;27;20479;-80
2023/07/15 12:48:21;;;;;;;20.90;19.80;;;;;;;;;;5135928;27;20451;-79
2023/07/15 12:50:48;;;;;;;20.03;18.93;;;;;;;;;;5135558;27;20499;-79
2023/07/15 12:53:15;;;;;;;19.83;18.73;;;;;;;;;;5135937;27;20492;-79
2023/07/15 12:55:42;;;;;;;20.30;19.13;;;;;;;;;;5134903;27;20856;-79
2023/07/15 12:58:09;;;;;;;21.23;20.03;;;;;;;;;;5135560;27;20447;-79
2023/07/15 13:00:36;;;;;;;20.73;19.53;;;;;;;;;;5135568;27;20902;-79
2023/07/15 13:03:04;;;;;;;20.67;19.50;;;;;;;;;;5135372;27;20466;-80
2023/07/15 13:05:32;;;;;;;20.93;19.80;;;;;;;;;;5134671;27;20443;-79
2023/07/15 13:07:59;;;;;;;21.73;20.43;;;;;;;;;;5135332;27;21019;-80
2023/07/15 13:10:26;;;;;;;21.47;20.27;;;;;;;;;;5134701;27;20479;-79
2023/07/15 13:12:53;;;;;;;22.73;21.23;;;;;;;;;;5134965;27;20414;-79
2023/07/15 13:15:21;;;;;;;22.50;21.10;;;;;;;;;;5134595;27;20937;-80
2023/07/15 13:17:47;;;;;;;22.90;21.40;;;;;;;;;;5133486;27;20508;-79
2023/07/15 13:20:15;;;;;;;22.80;21.53;;;;;;;;;;5135518;27;20445;-79
2023/07/15 13:22:43;;;;;;;22.27;20.97;;;;;;;;;;5134762;27;20410;-78
2023/07/15 13:25:10;;;;;;;21.50;20.30;;;;;;;;;;5134318;27;21024;-80
2023/07/15 13:27:39;;;;;;;22.27;20.80;;;;;;;;;;5133745;27;20475;-80
2023/07/15 13:30:08;;;;;;;22.10;20.50;;;;;;;;;;5134846;27;20958;-79
2023/07/15 13:32:35;;;;;;;22.70;21.50;;;;;;;;;;5134518;27;20825;-81
2023/07/15 13:35:02;;;;;;;22.07;20.77;;;;;;;;;;5134812;27;20451;-80
2023/07/15 13:37:29;;;;;;;22.17;21.00;;;;;;;;;;5133770;27;20466;-79
2023/07/15 13:39:58;;;;;;;22.27;21.07;;;;;;;;;;5134378;27;20468;-80
2023/07/15 13:42:25;;;;;;;22.43;21.13;;;;;;;;;;5134947;27;20450;-79
2023/07/15 13:44:52;;;;;;;22.83;21.57;;;;;;;;;;5134449;27;20425;-80
2023/07/15 13:47:19;;;;;;;22.57;21.27;;;;;;;;;;5132969;27;21018;-80
2023/07/15 13:49:46;;;;;;;23.20;21.83;;;;;;;;;;5134565;27;20437;-80
2023/07/15 13:52:13;;;;;;;22.87;21.57;;;;;;;;;;5134510;27;20482;-80
2023/07/15 13:54:40;;;;;;;21.60;20.30;;;;;;;;;;5134482;27;20425;-79
2023/07/15 13:57:09;;;;;;;22.30;20.90;;;;;;;;;;5133665;27;20781;-80
2023/07/15 13:59:36;;;;;;;22.67;21.27;;;;;;;;;;5133023;27;20486;-79
2023/07/15 14:02:04;;;;;;;23.00;21.47;;;;;;;;;;5134655;27;20421;-80
2023/07/15 14:04:31;;;;;;;23.20;21.70;;;;;;;;;;5134247;27;20440;-80
2023/07/15 14:06:58;;;;;;;23.17;21.77;;;;;;;;;;5133518;27;20543;-80
2023/07/15 14:09:25;;;;;;;22.40;21.07;;;;;;;;;;5133531;27;20491;-79
2023/07/15 14:11:52;;;;;;;21.87;20.67;;;;;;;;;;5134286;27;20425;-80
2023/07/15 14:14:21;;;;;;;22.13;20.93;;;;;;;;;;5133885;27;20439;-80
2023/07/15 14:16:48;;;;;;;23.10;21.80;;;;;;;;;;5133838;27;20447;-80
2023/07/15 14:19:15;;;;;;;22.77;21.47;;;;;;;;;;5133675;27;20947;-80
2023/07/15 14:21:42;;;;;;;22.67;21.47;;;;;;;;;;5134394;27;20409;-80